Time;durP1;ratioP1;P1;durP2;ratioP2;P2;SDS_P1;SDS_P2;PMS_P1;PMS_P2;Temp;Humidity;BMP_temperature;BMP_pressure;BME280_temperature;BME280_humidity;BME280_pressure;Samples;Min_cycle;Max_cycle;Signal;HPM_P1;HPM_P2
2023/06/10 00:00:43;;;;;;;8.10;5.10;;;;;;;-145.41;100.00;58600.66;4995828;28;20081;-77
2023/06/10 00:03:09;;;;;;;9.55;5.40;;;;;;;-145.41;100.00;58600.66;4982085;28;20045;-78
2023/06/10 00:05:35;;;;;;;6.45;4.25;;;;;;;-145.41;100.00;58600.66;4997307;28;20037;-77
2023/06/10 00:08:06;;;;;;;9.45;4.55;;;;;;;-145.41;100.00;58600.66;4983374;28;20118;-78
2023/06/10 00:10:33;;;;;;;6.80;4.70;;;;;;;-145.41;100.00;58600.66;4983457;28;20034;-78
2023/06/10 00:12:58;;;;;;;9.50;4.70;;;;;;;-145.41;100.00;58600.66;4997416;28;20050;-78
2023/06/10 00:15:23;;;;;;;6.10;4.55;;;;;;;-145.41;100.00;58600.66;5000073;28;20048;-78
2023/06/10 00:17:49;;;;;;;6.93;5.07;;;;;;;-145.41;100.00;58600.66;4998696;28;20268;-78
2023/06/10 00:20:14;;;;;;;8.65;4.90;;;;;;;-145.41;100.00;58600.66;4997643;28;20109;-78
2023/06/10 00:22:41;;;;;;;7.90;4.70;;;;;;;-145.41;100.00;58600.66;4999548;28;20140;-77
2023/06/10 00:25:07;;;;;;;9.13;4.68;;;;;;;-145.41;100.00;58600.66;4991690;28;20121;-77
2023/06/10 00:27:34;;;;;;;5.78;4.20;;;;;;;-145.41;100.00;58600.66;4983264;28;20113;-77
2023/06/10 00:30:06;;;;;;;7.55;4.40;;;;;;;-145.41;100.00;58600.66;4982984;28;20026;-77
2023/06/10 00:32:35;;;;;;;7.18;4.10;;;;;;;-145.41;100.00;58600.66;4999577;28;20069;-77
2023/06/10 00:35:03;;;;;;;7.32;4.85;;;;;;;-145.41;100.00;58600.66;4983444;28;20524;-77
2023/06/10 00:37:30;;;;;;;9.63;4.55;;;;;;;-145.41;100.00;58600.66;4986667;28;20551;-77
2023/06/10 00:39:55;;;;;;;7.72;4.90;;;;;;;-145.41;100.00;58600.66;5003190;28;20034;-77
2023/06/10 00:42:23;;;;;;;6.28;4.35;;;;;;;-145.41;100.00;58600.66;4998039;28;20069;-77
2023/06/10 00:44:51;;;;;;;8.20;5.13;;;;;;;-145.41;100.00;58600.66;5002741;28;20084;-77
2023/06/10 00:47:18;;;;;;;7.07;4.82;;;;;;;-145.41;100.00;58600.66;5000467;28;20449;-77
2023/06/10 00:49:45;;;;;;;10.02;4.57;;;;;;;-145.41;100.00;58600.66;5001610;28;20049;-77
2023/06/10 00:52:11;;;;;;;9.73;4.20;;;;;;;-145.41;100.00;58600.66;4975628;28;20511;-77
2023/06/10 00:54:38;;;;;;;8.60;4.22;;;;;;;-145.41;100.00;58600.66;4997609;28;20388;-77
2023/06/10 00:57:04;;;;;;;9.38;4.38;;;;;;;-145.41;100.00;58600.66;4988957;28;20119;-78
2023/06/10 00:59:30;;;;;;;9.27;4.68;;;;;;;-145.41;100.00;58600.66;5001126;28;20066;-78
2023/06/10 01:01:56;;;;;;;9.75;4.60;;;;;;;-145.41;100.00;58600.66;4982230;28;20080;-78
2023/06/10 01:04:23;;;;;;;7.15;4.53;;;;;;;-145.41;100.00;58600.66;4967763;28;20045;-78
2023/06/10 01:07:14;;;;;;;10.02;4.57;;;;;;;-145.41;100.00;58600.66;4981453;28;20496;-78
2023/06/10 01:09:49;;;;;;;8.75;4.80;;;;;;;-145.41;100.00;58600.66;4996962;28;20050;-78
2023/06/10 01:12:38;;;;;;;7.32;4.53;;;;;;;-145.41;100.00;58600.66;4992494;28;20408;-77
2023/06/10 01:15:04;;;;;;;11.40;4.63;;;;;;;-145.41;100.00;58600.66;4997544;28;20109;-77
2023/06/10 01:17:30;;;;;;;10.15;4.65;;;;;;;-145.41;100.00;58600.66;4989534;28;20038;-77
2023/06/10 01:19:59;;;;;;;8.13;4.32;;;;;;;-145.41;100.00;58600.66;4977254;28;20030;-78
2023/06/10 01:22:32;;;;;;;8.57;4.40;;;;;;;-145.41;100.00;58600.66;4981016;28;20042;-78
2023/06/10 01:24:58;;;;;;;9.15;4.30;;;;;;;-145.41;100.00;58600.66;4995657;28;20030;-78
2023/06/10 01:27:30;;;;;;;9.00;4.53;;;;;;;-145.41;100.00;58600.66;4980625;28;20036;-78
2023/06/10 01:30:03;;;;;;;8.80;4.75;;;;;;;-145.41;100.00;58600.66;4978390;28;20038;-78
2023/06/10 01:32:40;;;;;;;8.65;4.60;;;;;;;-145.41;100.00;58600.66;4996941;28;20117;-78
2023/06/10 01:35:08;;;;;;;12.20;5.18;;;;;;;-145.41;100.00;58600.66;4986819;28;20065;-79
2023/06/10 01:37:39;;;;;;;8.90;5.10;;;;;;;-145.41;100.00;58600.66;4990221;28;20029;-78
2023/06/10 01:40:08;;;;;;;7.57;4.80;;;;;;;-145.41;100.00;58600.66;4977317;28;20029;-77
2023/06/10 01:42:34;;;;;;;8.50;4.80;;;;;;;-145.41;100.00;58600.66;4985768;28;20045;-77
2023/06/10 01:45:00;;;;;;;7.43;4.30;;;;;;;-145.41;100.00;58600.66;4997586;28;20038;-77
2023/06/10 01:47:26;;;;;;;8.18;4.80;;;;;;;-145.41;100.00;58600.66;4983230;28;20077;-77
2023/06/10 01:49:51;;;;;;;9.30;5.43;;;;;;;-145.41;100.00;58600.66;5002193;28;20038;-77
2023/06/10 01:52:17;;;;;;;7.32;4.75;;;;;;;-145.41;100.00;58600.66;5000184;28;20140;-77
2023/06/10 01:54:43;;;;;;;8.38;4.32;;;;;;;-145.41;100.00;58600.66;4985649;28;20129;-77
2023/06/10 01:57:08;;;;;;;9.60;4.93;;;;;;;-145.41;100.00;58600.66;4978684;28;20404;-77
2023/06/10 01:59:33;;;;;;;8.43;4.18;;;;;;;-145.41;100.00;58600.66;5003276;28;20497;-77
2023/06/10 02:01:59;;;;;;;7.68;5.10;;;;;;;-145.41;100.00;58600.66;4981204;28;20038;-77
2023/06/10 02:04:24;;;;;;;9.70;4.88;;;;;;;-145.41;100.00;58600.66;4983471;28;20425;-77
2023/06/10 02:06:50;;;;;;;13.35;8.18;;;;;;;-145.41;100.00;58600.66;5000734;28;20037;-77
2023/06/10 02:09:16;;;;;;;11.68;8.30;;;;;;;-145.41;100.00;58600.66;4999063;28;20470;-77
2023/06/10 02:11:43;;;;;;;10.30;6.05;;;;;;;-145.41;100.00;58600.66;4994872;28;20034;-77
2023/06/10 02:14:08;;;;;;;13.75;7.35;;;;;;;-145.41;100.00;58600.66;4982682;28;20116;-77
2023/06/10 02:16:34;;;;;;;8.43;5.50;;;;;;;-145.41;100.00;58600.66;5000480;28;20048;-77
2023/06/10 02:19:00;;;;;;;9.48;6.25;;;;;;;-145.41;100.00;58600.66;4982821;28;20037;-77
2023/06/10 02:21:26;;;;;;;13.07;8.35;;;;;;;-145.41;100.00;58600.66;4997656;28;20034;-77
2023/06/10 02:23:52;;;;;;;10.15;6.57;;;;;;;-145.41;100.00;58600.66;5005113;28;20516;-77
2023/06/10 02:26:17;;;;;;;14.73;8.88;;;;;;;-145.41;100.00;58600.66;4999560;28;20484;-77
2023/06/10 02:28:43;;;;;;;13.63;7.57;;;;;;;-145.41;100.00;58600.66;5001349;28;20042;-77
2023/06/10 02:31:08;;;;;;;14.38;10.18;;;;;;;-145.41;100.00;58600.66;4981743;28;20120;-77
2023/06/10 02:33:34;;;;;;;13.18;9.80;;;;;;;-145.41;100.00;58600.66;5005064;28;20076;-77
2023/06/10 02:35:59;;;;;;;15.93;11.10;;;;;;;-145.41;100.00;58600.66;4976605;28;20459;-77
2023/06/10 02:38:26;;;;;;;14.60;9.73;;;;;;;-145.41;100.00;58600.66;4981576;28;20030;-77
2023/06/10 02:40:53;;;;;;;11.75;8.45;;;;;;;-145.41;100.00;58600.66;4980552;28;20026;-77
2023/06/10 02:43:18;;;;;;;9.27;6.30;;;;;;;-145.41;100.00;58600.66;5003502;28;20037;-77
2023/06/10 02:45:44;;;;;;;8.88;6.15;;;;;;;-145.41;100.00;58600.66;4996258;28;20034;-77
2023/06/10 02:48:10;;;;;;;12.10;5.38;;;;;;;-145.41;100.00;58600.66;4982749;28;20091;-77
2023/06/10 02:50:36;;;;;;;12.05;8.85;;;;;;;-145.41;100.00;58600.66;4984129;28;20018;-76
2023/06/10 02:53:13;;;;;;;10.77;8.13;;;;;;;-145.41;100.00;58600.66;4960734;28;20057;-77
2023/06/10 02:55:42;;;;;;;11.38;8.68;;;;;;;-145.41;100.00;58600.66;5006030;28;20022;-76
2023/06/10 02:58:11;;;;;;;10.88;6.05;;;;;;;-145.41;100.00;58600.66;4981192;28;20038;-77
2023/06/10 03:00:37;;;;;;;8.23;5.65;;;;;;;-145.41;100.00;58600.66;4984301;28;20049;-76
2023/06/10 03:03:03;;;;;;;8.02;4.78;;;;;;;-145.41;100.00;58600.66;4977818;28;20053;-77
2023/06/10 03:05:33;;;;;;;7.78;5.15;;;;;;;-145.41;100.00;58600.66;4983411;28;20037;-77
2023/06/10 03:08:02;;;;;;;8.02;4.90;;;;;;;-145.41;100.00;58600.66;4972479;28;20034;-77
2023/06/10 03:10:29;;;;;;;10.40;4.97;;;;;;;-145.41;100.00;58600.66;4997011;28;20523;-77
2023/06/10 03:12:55;;;;;;;10.73;5.63;;;;;;;-145.41;100.00;58600.66;4986518;28;20034;-77
2023/06/10 03:15:24;;;;;;;8.82;5.07;;;;;;;-145.41;100.00;58600.66;4997861;28;20027;-77
2023/06/10 03:17:49;;;;;;;11.45;6.03;;;;;;;-145.41;100.00;58600.66;4977360;28;20026;-77
2023/06/10 03:20:16;;;;;;;8.75;5.38;;;;;;;-145.41;100.00;58600.66;5003680;28;20022;-77
2023/06/10 03:22:42;;;;;;;11.88;6.68;;;;;;;-145.41;100.00;58600.66;4979761;28;20026;-77
2023/06/10 03:25:13;;;;;;;8.93;5.03;;;;;;;-145.41;100.00;58600.66;4975947;28;20080;-77
2023/06/10 03:27:42;;;;;;;8.77;5.13;;;;;;;-145.41;100.00;58600.66;4978295;28;20026;-77
2023/06/10 03:30:09;;;;;;;8.73;4.95;;;;;;;-145.41;100.00;58600.66;4993111;28;20124;-77
2023/06/10 03:32:35;;;;;;;10.13;5.45;;;;;;;-145.41;100.00;58600.66;4986077;28;20036;-77
2023/06/10 03:35:01;;;;;;;8.55;5.53;;;;;;;-145.41;100.00;58600.66;4976455;28;20054;-77
2023/06/10 03:37:28;;;;;;;9.25;5.82;;;;;;;-145.41;100.00;58600.66;4992132;28;20026;-78
2023/06/10 03:39:54;;;;;;;11.02;5.80;;;;;;;-145.41;100.00;58600.66;4979340;28;20041;-77
2023/06/10 03:42:19;;;;;;;10.15;5.78;;;;;;;-145.41;100.00;58600.66;4976455;28;20034;-78
2023/06/10 03:44:45;;;;;;;7.85;5.20;;;;;;;-145.41;100.00;58600.66;4978468;28;20042;-77
2023/06/10 03:47:12;;;;;;;11.40;6.05;;;;;;;-145.41;100.00;58600.66;4998958;28;20030;-77
2023/06/10 03:49:38;;;;;;;9.55;5.18;;;;;;;-145.41;100.00;58600.66;4979729;28;20022;-77
2023/06/10 03:52:04;;;;;;;10.10;5.28;;;;;;;-145.41;100.00;58600.66;4996757;28;20515;-77
2023/06/10 03:54:31;;;;;;;10.32;6.30;;;;;;;-145.41;100.00;58600.66;4983680;28;20049;-77
2023/06/10 03:56:56;;;;;;;9.95;6.50;;;;;;;-145.41;100.00;58600.66;4996471;28;20030;-78
2023/06/10 03:59:22;;;;;;;11.13;6.18;;;;;;;-145.41;100.00;58600.66;4992434;28;20436;-77
2023/06/10 04:01:47;;;;;;;10.85;6.57;;;;;;;-145.41;100.00;58600.66;5001649;28;20045;-77
2023/06/10 04:04:16;;;;;;;11.75;6.18;;;;;;;-145.41;100.00;58600.66;4998095;28;20031;-77
2023/06/10 04:06:43;;;;;;;9.95;6.35;;;;;;;-145.41;100.00;58600.66;4987879;28;20065;-77
2023/06/10 04:09:09;;;;;;;13.32;6.40;;;;;;;-145.41;100.00;58600.66;4984240;28;20033;-77
2023/06/10 04:11:36;;;;;;;11.88;6.70;;;;;;;-145.41;100.00;58600.66;4978009;28;20027;-77
2023/06/10 04:14:02;;;;;;;12.40;6.80;;;;;;;-145.41;100.00;58600.66;4986921;28;20037;-77
2023/06/10 04:16:27;;;;;;;13.13;6.78;;;;;;;-145.41;100.00;58600.66;4984569;28;20037;-77
2023/06/10 04:18:53;;;;;;;10.85;5.75;;;;;;;-145.41;100.00;58600.66;4994173;28;20030;-77
2023/06/10 04:21:18;;;;;;;11.80;6.47;;;;;;;-145.41;100.00;58600.66;4976498;28;20049;-77
2023/06/10 04:23:44;;;;;;;11.07;6.50;;;;;;;-145.41;100.00;58600.66;4980367;28;20037;-77
2023/06/10 04:26:12;;;;;;;10.60;5.90;;;;;;;-145.41;100.00;58600.66;4994110;28;20040;-77
2023/06/10 04:28:37;;;;;;;10.23;6.68;;;;;;;-145.41;100.00;58600.66;4988817;28;20121;-77
2023/06/10 04:31:04;;;;;;;11.02;5.97;;;;;;;-145.41;100.00;58600.66;4998275;28;20114;-77
2023/06/10 04:33:30;;;;;;;10.85;7.55;;;;;;;-145.41;100.00;58600.66;4995334;28;20533;-77
2023/06/10 04:35:56;;;;;;;11.65;8.90;;;;;;;-145.41;100.00;58600.66;5003604;28;20034;-77
2023/06/10 04:38:24;;;;;;;11.05;6.65;;;;;;;-145.41;100.00;58600.66;4998646;28;20496;-78
2023/06/10 04:40:49;;;;;;;13.10;7.20;;;;;;;-145.41;100.00;58600.66;4978344;28;20107;-77
2023/06/10 04:43:16;;;;;;;10.23;6.40;;;;;;;-145.41;100.00;58600.66;5004764;28;20580;-78
2023/06/10 04:45:44;;;;;;;11.40;6.93;;;;;;;-145.41;100.00;58600.66;4982914;28;20102;-77
2023/06/10 04:48:10;;;;;;;10.52;8.20;;;;;;;-145.41;100.00;58600.66;4998030;28;20041;-78
2023/06/10 04:50:36;;;;;;;14.73;10.63;;;;;;;-145.41;100.00;58600.66;4998652;28;20026;-78
2023/06/10 04:53:03;;;;;;;15.95;10.93;;;;;;;-145.41;100.00;58600.66;4980392;28;20032;-78
2023/06/10 04:55:29;;;;;;;10.80;8.25;;;;;;;-145.41;100.00;58600.66;4994008;28;20080;-78
2023/06/10 04:57:55;;;;;;;13.43;7.53;;;;;;;-145.41;100.00;58600.66;4983384;28;20046;-78
2023/06/10 05:00:20;;;;;;;15.07;9.90;;;;;;;-145.41;100.00;58600.66;4978861;28;20038;-78
2023/06/10 05:02:49;;;;;;;14.55;12.18;;;;;;;-145.41;100.00;58600.66;4997021;28;20044;-78
2023/06/10 05:05:17;;;;;;;16.08;13.40;;;;;;;-145.41;100.00;58600.66;5005084;28;20100;-78
2023/06/10 05:07:43;;;;;;;20.58;15.25;;;;;;;-145.41;100.00;58600.66;5005392;28;20048;-78
2023/06/10 05:10:08;;;;;;;18.92;14.15;;;;;;;-145.41;100.00;58600.66;5004293;28;20022;-78
2023/06/10 05:12:34;;;;;;;11.50;8.45;;;;;;;-145.41;100.00;58600.66;4998187;28;20733;-78
2023/06/10 05:14:59;;;;;;;16.65;13.00;;;;;;;-145.41;100.00;58600.66;5004816;28;20037;-78
2023/06/10 05:17:25;;;;;;;21.20;15.45;;;;;;;-145.41;100.00;58600.66;5005752;28;20488;-78
2023/06/10 05:19:50;;;;;;;12.73;10.63;;;;;;;-145.41;100.00;58600.66;5000990;28;20160;-78
2023/06/10 05:22:17;;;;;;;14.68;12.13;;;;;;;-145.41;100.00;58600.66;5002696;28;20038;-78
2023/06/10 05:24:43;;;;;;;17.75;14.95;;;;;;;-145.41;100.00;58600.66;5002322;28;20104;-78
2023/06/10 05:27:09;;;;;;;14.48;12.02;;;;;;;-145.41;100.00;58600.66;4991815;28;20503;-78
2023/06/10 05:29:35;;;;;;;18.50;15.85;;;;;;;-145.41;100.00;58600.66;4999670;28;20038;-78
2023/06/10 05:32:02;;;;;;;17.83;12.60;;;;;;;-145.41;100.00;58600.66;4985735;28;20046;-78
2023/06/10 05:34:29;;;;;;;14.95;10.65;;;;;;;-145.41;100.00;58600.66;5004754;28;20030;-78
2023/06/10 05:36:54;;;;;;;12.75;10.13;;;;;;;-145.41;100.00;58600.66;5001753;28;20057;-78
2023/06/10 05:39:19;;;;;;;12.60;10.40;;;;;;;-145.41;100.00;58600.66;5006371;28;20119;-78
2023/06/10 05:41:45;;;;;;;19.13;14.25;;;;;;;-145.41;100.00;58600.66;5002440;28;20031;-78
2023/06/10 05:44:11;;;;;;;16.35;14.60;;;;;;;-145.41;100.00;58600.66;4994711;28;20030;-78
2023/06/10 05:46:36;;;;;;;17.20;12.32;;;;;;;-145.41;100.00;58600.66;4995137;28;20030;-77
2023/06/10 05:49:02;;;;;;;15.95;13.52;;;;;;;-145.41;100.00;58600.66;4992735;28;20485;-77
2023/06/10 05:51:28;;;;;;;16.70;14.85;;;;;;;-145.41;100.00;58600.66;5006205;28;20030;-77
2023/06/10 05:53:54;;;;;;;15.63;11.57;;;;;;;-145.41;100.00;58600.66;4991285;28;20496;-77
2023/06/10 05:56:21;;;;;;;16.67;12.85;;;;;;;-145.41;100.00;58600.66;4996565;28;20417;-78
2023/06/10 05:58:46;;;;;;;16.05;14.18;;;;;;;-145.41;100.00;58600.66;5009185;28;20091;-78
2023/06/10 06:01:12;;;;;;;16.80;15.00;;;;;;;-145.41;100.00;58600.66;4999158;28;20433;-78
2023/06/10 06:03:37;;;;;;;17.25;14.32;;;;;;;-145.41;100.00;58600.66;4996680;28;20060;-78
2023/06/10 06:06:03;;;;;;;12.57;9.23;;;;;;;-145.41;100.00;58600.66;5005447;28;20045;-79
2023/06/10 06:08:29;;;;;;;18.75;16.23;;;;;;;-145.41;100.00;58600.66;4980924;28;20034;-75
2023/06/10 06:10:54;;;;;;;12.82;9.05;;;;;;;-145.41;100.00;58600.66;4992141;28;20125;-78
2023/06/10 06:13:20;;;;;;;13.25;8.27;;;;;;;-145.41;100.00;58600.66;4998349;28;20124;-76
2023/06/10 06:15:45;;;;;;;9.55;7.28;;;;;;;-145.41;100.00;58600.66;4996476;28;20039;-76
2023/06/10 06:18:10;;;;;;;17.17;12.15;;;;;;;-145.41;100.00;58600.66;4996904;28;20028;-77
2023/06/10 06:20:36;;;;;;;12.75;8.52;;;;;;;-145.41;100.00;58600.66;5000153;28;20034;-77
2023/06/10 06:23:01;;;;;;;9.95;8.77;;;;;;;-145.41;100.00;58600.66;4998402;28;20035;-77
2023/06/10 06:25:26;;;;;;;20.42;18.27;;;;;;;-145.41;100.00;58600.66;4998563;28;20092;-77
2023/06/10 06:27:52;;;;;;;16.20;14.60;;;;;;;-145.41;100.00;58600.66;4988370;28;20412;-77
2023/06/10 06:30:17;;;;;;;8.95;7.50;;;;;;;-145.41;100.00;58600.66;4999050;28;20073;-77
2023/06/10 06:32:43;;;;;;;16.83;14.05;;;;;;;-145.41;100.00;58600.66;5002460;28;20476;-77
2023/06/10 06:35:08;;;;;;;11.75;8.98;;;;;;;-145.41;100.00;58600.66;4999368;28;20033;-77
2023/06/10 06:37:34;;;;;;;18.00;16.17;;;;;;;-145.41;100.00;58600.66;4975377;28;20045;-77
2023/06/10 06:40:13;;;;;;;13.85;11.65;;;;;;;-145.41;100.00;58600.66;4996295;28;20029;-77
2023/06/10 06:42:39;;;;;;;10.48;8.43;;;;;;;-145.41;100.00;58600.66;5001771;28;20042;-77
2023/06/10 06:45:34;;;;;;;12.77;11.15;;;;;;;-145.41;100.00;58600.66;4979360;28;20033;-77
2023/06/10 06:47:59;;;;;;;15.75;14.05;;;;;;;-145.41;100.00;58600.66;5005435;28;20034;-76
2023/06/10 06:50:25;;;;;;;18.08;16.23;;;;;;;-145.41;100.00;58600.66;5001013;28;20077;-77
2023/06/10 06:52:51;;;;;;;11.75;10.55;;;;;;;-145.41;100.00;58600.66;4989456;28;20402;-77
2023/06/10 06:55:16;;;;;;;12.10;10.27;;;;;;;-145.41;100.00;58600.66;5004070;28;20057;-77
2023/06/10 06:57:41;;;;;;;11.65;10.52;;;;;;;-145.41;100.00;58600.66;5001292;28;20030;-77
2023/06/10 07:00:08;;;;;;;9.77;8.45;;;;;;;-145.41;100.00;58600.66;4975252;28;20540;-78
2023/06/10 07:02:35;;;;;;;12.18;7.32;;;;;;;-145.41;100.00;58600.66;4998301;28;20385;-77
2023/06/10 07:05:00;;;;;;;7.97;6.35;;;;;;;-145.41;100.00;58600.66;4996834;28;20100;-77
2023/06/10 07:07:26;;;;;;;10.82;6.93;;;;;;;-145.41;100.00;58600.66;4993229;28;20042;-77
2023/06/10 07:09:52;;;;;;;10.13;7.70;;;;;;;-145.41;100.00;58600.66;4994557;28;20093;-77
2023/06/10 07:12:18;;;;;;;8.95;6.95;;;;;;;-145.41;100.00;58600.66;4982942;28;20084;-77
2023/06/10 07:14:43;;;;;;;9.13;6.88;;;;;;;-145.41;100.00;58600.66;4984776;28;20030;-77
2023/06/10 07:17:09;;;;;;;8.80;6.53;;;;;;;-145.41;100.00;58600.66;5005835;28;20527;-77
2023/06/10 07:19:34;;;;;;;10.65;7.00;;;;;;;-145.41;100.00;58600.66;4998932;28;20030;-77
2023/06/10 07:21:59;;;;;;;10.32;6.57;;;;;;;-145.41;100.00;58600.66;4991263;28;20100;-77
2023/06/10 07:24:25;;;;;;;8.98;7.13;;;;;;;-145.41;100.00;58600.66;4996478;28;20065;-77
2023/06/10 07:26:50;;;;;;;8.25;6.53;;;;;;;-145.41;100.00;58600.66;4992104;28;20046;-77
2023/06/10 07:29:16;;;;;;;9.70;6.70;;;;;;;-145.41;100.00;58600.66;4992840;28;20108;-77
2023/06/10 07:31:41;;;;;;;7.53;6.72;;;;;;;-145.41;100.00;58600.66;4977208;28;20037;-77
2023/06/10 07:34:07;;;;;;;8.05;6.35;;;;;;;-145.41;100.00;58600.66;4990829;28;20050;-76
2023/06/10 07:36:32;;;;;;;10.00;6.88;;;;;;;-145.41;100.00;58600.66;4999039;28;20042;-77
2023/06/10 07:38:58;;;;;;;8.02;6.85;;;;;;;-145.41;100.00;58600.66;5002620;28;20062;-78
2023/06/10 07:41:25;;;;;;;7.45;5.95;;;;;;;-145.41;100.00;58600.66;4997014;28;20081;-76
2023/06/10 07:43:54;;;;;;;8.40;6.13;;;;;;;-145.41;100.00;58600.66;4988158;28;20172;-77
2023/06/10 07:46:21;;;;;;;10.02;5.97;;;;;;;-145.41;100.00;58600.66;5000071;28;20049;-77
2023/06/10 07:48:47;;;;;;;9.10;5.63;;;;;;;-145.41;100.00;58600.66;4992685;28;20153;-77
2023/06/10 07:51:12;;;;;;;7.47;6.00;;;;;;;-145.41;100.00;58600.66;5004755;28;20049;-77
2023/06/10 07:53:37;;;;;;;7.75;5.80;;;;;;;-145.41;100.00;58600.66;5000221;28;20045;-77
2023/06/10 07:56:03;;;;;;;10.52;5.63;;;;;;;-145.41;100.00;58600.66;4994122;28;20046;-76
2023/06/10 07:58:28;;;;;;;9.25;5.65;;;;;;;-145.41;100.00;58600.66;5001730;28;20117;-77
2023/06/10 08:00:54;;;;;;;8.20;5.82;;;;;;;-145.41;100.00;58600.66;5000157;28;20371;-77
2023/06/10 08:03:19;;;;;;;6.82;5.68;;;;;;;-145.41;100.00;58600.66;4993691;28;20065;-77
2023/06/10 08:05:44;;;;;;;8.18;5.68;;;;;;;-145.41;100.00;58600.66;4980610;28;20427;-76
2023/06/10 08:08:10;;;;;;;8.63;5.30;;;;;;;-145.41;100.00;58600.66;4999141;28;20592;-77
2023/06/10 08:10:35;;;;;;;8.80;6.53;;;;;;;-145.41;100.00;58600.66;4994820;28;20105;-77
2023/06/10 08:13:01;;;;;;;8.05;5.40;;;;;;;-145.41;100.00;58600.66;5000716;28;20034;-77
2023/06/10 08:15:26;;;;;;;6.10;5.03;;;;;;;-145.41;100.00;58600.66;4999879;28;20524;-77
2023/06/10 08:17:51;;;;;;;7.85;5.60;;;;;;;-145.41;100.00;58600.66;4976719;28;20412;-77
2023/06/10 08:20:18;;;;;;;8.13;4.95;;;;;;;-145.41;100.00;58600.66;5004283;28;20030;-79
2023/06/10 08:22:43;;;;;;;6.15;4.90;;;;;;;-145.41;100.00;58600.66;5004452;28;20042;-77
2023/06/10 08:25:10;;;;;;;5.65;5.05;;;;;;;-145.41;100.00;58600.66;5002855;28;20045;-76
2023/06/10 08:27:35;;;;;;;7.60;4.97;;;;;;;-145.41;100.00;58600.66;5008499;28;20042;-77
2023/06/10 08:30:00;;;;;;;7.55;5.05;;;;;;;-145.41;100.00;58600.66;5002533;28;20087;-77
2023/06/10 08:32:26;;;;;;;6.50;5.10;;;;;;;-145.41;100.00;58600.66;5001422;28;20041;-77
2023/06/10 08:34:51;;;;;;;7.32;5.20;;;;;;;-145.41;100.00;58600.66;5002685;28;20048;-77
2023/06/10 08:37:16;;;;;;;8.50;5.03;;;;;;;-145.41;100.00;58600.66;4999230;28;20029;-77
2023/06/10 08:39:42;;;;;;;5.72;4.75;;;;;;;-145.41;100.00;58600.66;4983441;28;20048;-77
2023/06/10 08:42:28;;;;;;;8.02;5.47;;;;;;;-145.41;100.00;58600.66;5007052;28;20030;-77
2023/06/10 08:44:55;;;;;;;6.50;5.05;;;;;;;-145.41;100.00;58600.66;4999222;28;20034;-77
2023/06/10 08:47:23;;;;;;;6.57;4.70;;;;;;;-145.41;100.00;58600.66;5002882;28;20037;-77
2023/06/10 08:49:48;;;;;;;7.07;5.22;;;;;;;-145.41;100.00;58600.66;4999532;28;20567;-77
2023/06/10 08:52:16;;;;;;;7.53;4.80;;;;;;;-145.41;100.00;58600.66;4982703;28;20176;-77
2023/06/10 08:54:48;;;;;;;6.50;4.75;;;;;;;-145.41;100.00;58600.66;4984763;28;20042;-77
2023/06/10 08:57:15;;;;;;;8.13;4.72;;;;;;;-145.41;100.00;58600.66;5002973;28;20428;-77
2023/06/10 08:59:40;;;;;;;7.00;5.22;;;;;;;-145.41;100.00;58600.66;4996021;28;20579;-77
2023/06/10 09:02:08;;;;;;;7.13;4.65;;;;;;;-145.41;100.00;58600.66;5011184;28;20042;-77
2023/06/10 09:04:36;;;;;;;5.60;4.78;;;;;;;-145.41;100.00;58600.66;5001688;28;20117;-77
2023/06/10 09:07:02;;;;;;;9.13;5.00;;;;;;;-145.41;100.00;58600.66;4995450;28;20120;-77
2023/06/10 09:09:29;;;;;;;5.47;4.80;;;;;;;-145.41;100.00;58600.66;5010320;28;20092;-77
2023/06/10 09:11:54;;;;;;;7.38;4.47;;;;;;;-145.41;100.00;58600.66;4985225;28;20042;-76
2023/06/10 09:14:19;;;;;;;6.50;4.68;;;;;;;-145.41;100.00;58600.66;4996913;28;20057;-77
2023/06/10 09:16:46;;;;;;;5.35;4.00;;;;;;;-145.41;100.00;58600.66;5001825;28;20030;-77
2023/06/10 09:19:12;;;;;;;5.10;4.05;;;;;;;-145.41;100.00;58600.66;4999165;28;20065;-77
2023/06/10 09:21:40;;;;;;;5.78;4.38;;;;;;;-145.41;100.00;58600.66;4982778;28;20032;-77
2023/06/10 09:24:05;;;;;;;6.30;4.45;;;;;;;-145.41;100.00;58600.66;5008279;28;20812;-77
2023/06/10 09:26:30;;;;;;;7.68;4.50;;;;;;;-145.41;100.00;58600.66;4998420;28;20535;-77
2023/06/10 09:29:03;;;;;;;7.03;4.97;;;;;;;-145.41;100.00;58600.66;4980076;28;20072;-78
2023/06/10 09:31:29;;;;;;;6.43;4.55;;;;;;;-145.41;100.00;58600.66;5005887;28;20429;-78
2023/06/10 09:34:03;;;;;;;7.63;4.80;;;;;;;-145.41;100.00;58600.66;4996808;28;20132;-77
2023/06/10 09:36:29;;;;;;;7.05;4.75;;;;;;;-145.41;100.00;58600.66;4996087;28;20087;-77
2023/06/10 09:38:56;;;;;;;6.60;5.15;;;;;;;-145.41;100.00;58600.66;4999752;28;20042;-77
2023/06/10 09:41:21;;;;;;;8.75;5.15;;;;;;;-145.41;100.00;58600.66;4997437;28;20038;-77
2023/06/10 09:43:48;;;;;;;6.35;4.90;;;;;;;-145.41;100.00;58600.66;5004606;28;20148;-78
2023/06/10 09:46:18;;;;;;;5.70;4.72;;;;;;;-145.41;100.00;58600.66;4987083;28;20102;-78
2023/06/10 09:48:45;;;;;;;5.75;4.68;;;;;;;-145.41;100.00;58600.66;4998446;28;20117;-76
2023/06/10 09:51:12;;;;;;;6.28;4.60;;;;;;;-145.41;100.00;58600.66;5004136;28;20104;-77
2023/06/10 09:53:38;;;;;;;6.55;4.43;;;;;;;-145.41;100.00;58600.66;5004515;28;20069;-77
2023/06/10 09:56:03;;;;;;;5.70;4.57;;;;;;;-145.41;100.00;58600.66;4996501;28;20033;-77
2023/06/10 09:58:37;;;;;;;5.32;4.60;;;;;;;-145.41;100.00;58600.66;4982096;28;20088;-77
2023/06/10 10:01:11;;;;;;;6.47;4.68;;;;;;;-145.41;100.00;58600.66;4997454;28;20038;-77
2023/06/10 10:03:45;;;;;;;6.90;4.20;;;;;;;-145.41;100.00;58600.66;4978204;28;20501;-77
2023/06/10 10:06:10;;;;;;;8.57;4.85;;;;;;;-145.41;100.00;58600.66;5001039;28;20858;-77
2023/06/10 10:08:36;;;;;;;7.65;4.97;;;;;;;-145.41;100.00;58600.66;5001589;28;20030;-75
2023/06/10 10:11:02;;;;;;;6.80;5.13;;;;;;;-145.41;100.00;58600.66;4996754;28;20054;-77
2023/06/10 10:13:28;;;;;;;6.88;5.10;;;;;;;-145.41;100.00;58600.66;5000498;28;20113;-77
2023/06/10 10:15:58;;;;;;;7.55;4.70;;;;;;;-145.41;100.00;58600.66;4995928;28;20041;-77
2023/06/10 10:18:28;;;;;;;6.10;4.82;;;;;;;-145.41;100.00;58600.66;4982459;28;20018;-77
2023/06/10 10:20:55;;;;;;;8.00;5.35;;;;;;;-145.41;100.00;58600.66;5005964;28;20034;-77
2023/06/10 10:23:38;;;;;;;8.35;4.95;;;;;;;-145.41;100.00;58600.66;4991993;28;20049;-77
2023/06/10 10:26:09;;;;;;;8.95;5.53;;;;;;;-145.41;100.00;58600.66;4987252;28;20041;-77
2023/06/10 10:28:42;;;;;;;8.65;4.88;;;;;;;-145.41;100.00;58600.66;5000771;28;20497;-77
2023/06/10 10:31:15;;;;;;;8.93;4.88;;;;;;;-145.41;100.00;58600.66;4997050;28;20048;-78
2023/06/10 10:33:52;;;;;;;7.28;5.32;;;;;;;-145.41;100.00;58600.66;4987211;28;20049;-77
2023/06/10 10:36:18;;;;;;;7.60;5.20;;;;;;;-145.41;100.00;58600.66;4999087;28;20026;-77
2023/06/10 10:38:47;;;;;;;5.88;4.43;;;;;;;-145.41;100.00;58600.66;4989247;28;20134;-77
2023/06/10 10:41:13;;;;;;;5.95;5.32;;;;;;;-145.41;100.00;58600.66;5007446;28;20029;-77
2023/06/10 10:43:41;;;;;;;6.50;5.00;;;;;;;-145.41;100.00;58600.66;4999516;28;20038;-77
2023/06/10 10:46:12;;;;;;;7.05;4.38;;;;;;;-145.41;100.00;58600.66;4998959;28;20035;-78
2023/06/10 10:48:38;;;;;;;8.18;4.93;;;;;;;-145.41;100.00;58600.66;5007618;28;20390;-77
2023/06/10 10:51:04;;;;;;;6.07;4.30;;;;;;;-145.41;100.00;58600.66;4998602;28;20117;-77
2023/06/10 10:53:29;;;;;;;6.93;4.57;;;;;;;-145.41;100.00;58600.66;4996425;28;20125;-77
2023/06/10 10:56:08;;;;;;;7.25;4.78;;;;;;;-145.41;100.00;58600.66;5003615;28;20045;-77
2023/06/10 10:58:33;;;;;;;6.85;4.75;;;;;;;-145.41;100.00;58600.66;4997402;28;20045;-77
2023/06/10 11:00:59;;;;;;;7.88;4.70;;;;;;;-145.41;100.00;58600.66;4986301;28;20034;-77
2023/06/10 11:03:30;;;;;;;6.68;4.75;;;;;;;-145.41;100.00;58600.66;4982801;28;20049;-77